Airfield :
LOGIN :

Register | Disclaimer

   EN    FR    IT 

 










Legend :    VFR   Marginal VFR   IFR   Intensive IFR   Very Intensive IFR
Visi :
Ceiling :
>= 8 km
>= 3000ft
5 to 8 km
1000 to 3000 ft
1500m to 5 km
500 to 1000 ft
800 to 1500m
200 to 500 ft
< 800m
< 200 ft
Symbols :   Thunderstorms  Fog  Heavy snow  Heavy precipitations  Wind > 20 kt
SIGMETs :     Misc.  Thunderstorms  Icing  Turbulence  Mountain Waves  Volcanic Ashes






- Airport Elevation : 90 ft
- IATA code : NTE


LFRS - Nantes

CURRENT METAR :
  • 191800Z AUTO 02008KT 360V070 9999 FEW046 06/01 Q1042 NOSIG

EXPIRED METARs :
  • 191730Z AUTO 02009KT 350V050 CAVOK 06/01 Q1042 NOSIG
  • 191700Z AUTO 02008KT 350V050 9999 FEW044 07/01 Q1042 NOSIG
  • 191630Z AUTO 02010KT 360V060 9999 FEW037 BKN045 07/01 Q1041 NOSIG
  • 191600Z AUTO 02006KT 350V050 9999 FEW032 SCT047 08/02 Q1041 NOSIG
  • 191530Z AUTO 02010KT 350V060 9999 BKN037 BKN046 08/02 Q1041 NOSIG

TAF TAF LFRS
Valid from the 19 at 18:00 until the 21 at 00:00 UTC


191700Z 1918/2024 02010KT CAVOK
TEMPO 2012/2016 04015G25KT
BECMG 2021/2024 BKN011
ATIS : +33 2 40 05 12 74



MET'MAP, your aeronautical weather chart ! - Copyright ORBIFLY December 2007 - Disclaimer

ORBIFLY MET'MAP TEAM :

Programming & Development : Alexandra Zaïnal
Concept & original design : Baudouin d'Aumeries
Assistance for programming : Marc-Olivier Méhu
Technical & hardware support : Manuel Goepfert

Contact : metmap@orbifly.com




SOURCES & CREDITS :

   NOAA